Time;durP1;ratioP1;P1;durP2;ratioP2;P2;SDS_P1;SDS_P2;PMS_P1;PMS_P2;Temp;Humidity;BMP_temperature;BMP_pressure;BME280_temperature;BME280_humidity;BME280_pressure;Samples;Min_cycle;Max_cycle;Signal;HPM_P1;HPM_P2
2022/02/28 00:00:18;;;;;;;4.38;3.70;;;;;;;-2.82;72.16;101404.75;5063993;28;20092;-60
2022/02/28 00:02:45;;;;;;;5.63;4.05;;;;;;;-2.34;72.45;101482.03;5046533;28;20325;-60
2022/02/28 00:05:11;;;;;;;5.55;4.10;;;;;;;-2.48;72.41;101473.63;5062674;28;20195;-60
2022/02/28 00:07:36;;;;;;;6.95;5.30;;;;;;;-2.38;72.07;101477.59;5060534;28;20032;-60
2022/02/28 00:10:04;;;;;;;6.60;5.45;;;;;;;-2.48;72.11;101488.84;5052769;28;20024;-61
2022/02/28 00:12:30;;;;;;;6.30;5.63;;;;;;;-2.49;72.23;101484.53;5064094;28;20028;-60
2022/02/28 00:14:56;;;;;;;6.72;6.07;;;;;;;-2.45;72.20;101485.59;5054211;28;20024;-60
2022/02/28 00:17:21;;;;;;;7.80;6.53;;;;;;;-2.54;72.31;101477.44;5063908;28;20028;-61
2022/02/28 00:19:47;;;;;;;7.53;5.35;;;;;;;-2.58;72.50;101480.56;5063885;28;20070;-61
2022/02/28 00:22:12;;;;;;;9.73;5.25;;;;;;;-2.50;72.42;101480.22;5063991;28;20021;-60
2022/02/28 00:24:38;;;;;;;6.75;5.43;;;;;;;-2.55;72.45;101488.34;5063658;28;20029;-61
2022/02/28 00:27:04;;;;;;;7.05;5.43;;;;;;;-2.53;72.20;101484.25;5063858;28;20315;-62
2022/02/28 00:29:29;;;;;;;7.10;5.50;;;;;;;-2.50;72.70;101486.97;5063710;28;20203;-61
2022/02/28 00:31:55;;;;;;;7.47;5.43;;;;;;;-2.51;72.86;101485.22;5062558;28;20021;-65
2022/02/28 00:34:20;;;;;;;4.97;4.47;;;;;;;-2.58;72.74;101490.69;5063738;28;20033;-61
2022/02/28 00:36:46;;;;;;;4.47;4.07;;;;;;;-2.60;72.42;101490.59;5063548;28;20032;-62
2022/02/28 00:39:12;;;;;;;5.13;4.03;;;;;;;-2.60;73.05;101488.06;5063772;28;20025;-61
2022/02/28 00:41:37;;;;;;;5.53;4.22;;;;;;;-2.58;73.69;101488.16;5063666;28;20024;-62
2022/02/28 00:44:03;;;;;;;5.18;3.83;;;;;;;-2.56;73.17;101492.56;5063578;28;20321;-62
2022/02/28 00:46:29;;;;;;;4.43;3.75;;;;;;;-2.67;73.40;101478.34;5063282;28;20082;-61
2022/02/28 00:48:54;;;;;;;4.28;3.25;;;;;;;-2.54;72.72;101483.38;5062321;28;20333;-61
2022/02/28 00:51:20;;;;;;;5.45;4.30;;;;;;;-2.62;73.23;101485.44;5063282;28;20065;-60
2022/02/28 00:53:45;;;;;;;6.20;5.22;;;;;;;-2.60;73.02;101494.00;5063328;28;20233;-61
2022/02/28 00:56:11;;;;;;;7.47;5.45;;;;;;;-2.71;72.99;101496.69;5063105;28;20029;-62
2022/02/28 00:58:37;;;;;;;6.18;5.50;;;;;;;-2.64;72.68;101487.03;5062060;28;20032;-62
2022/02/28 01:01:03;;;;;;;8.27;6.15;;;;;;;-2.67;73.23;101489.34;5063358;28;20024;-61
2022/02/28 01:03:29;;;;;;;9.02;5.47;;;;;;;-2.71;73.36;101486.53;5063123;28;20092;-60
2022/02/28 01:05:55;;;;;;;6.35;4.88;;;;;;;-2.67;73.14;101486.81;5063209;28;20063;-60
2022/02/28 01:08:21;;;;;;;7.68;5.43;;;;;;;-2.62;73.85;101485.44;5053453;28;20025;-61
2022/02/28 01:10:48;;;;;;;7.82;5.00;;;;;;;-2.65;73.21;101494.50;5061583;28;20337;-61
2022/02/28 01:13:14;;;;;;;5.50;4.55;;;;;;;-2.74;73.86;101479.59;5063604;28;20256;-61
2022/02/28 01:15:40;;;;;;;5.13;4.18;;;;;;;-2.64;73.70;101488.66;5062664;28;20039;-61
2022/02/28 01:18:08;;;;;;;5.93;4.43;;;;;;;-2.75;73.44;101488.03;5061550;28;20048;-62
2022/02/28 01:20:34;;;;;;;8.73;5.70;;;;;;;-2.80;73.78;101492.78;5063055;28;20045;-62
2022/02/28 01:23:00;;;;;;;9.98;7.43;;;;;;;-2.73;74.40;101485.59;5063049;28;20071;-61
2022/02/28 01:25:25;;;;;;;10.70;7.15;;;;;;;-2.80;73.62;101481.78;5062802;28;20033;-61
2022/02/28 01:27:51;;;;;;;10.65;8.05;;;;;;;-2.79;74.37;101475.94;5062747;28;20143;-59
2022/02/28 01:30:16;;;;;;;9.20;7.50;;;;;;;-2.79;73.83;101475.94;5062957;28;20067;-61
2022/02/28 01:32:42;;;;;;;9.98;7.85;;;;;;;-2.91;74.92;101465.03;5062816;28;20036;-61
2022/02/28 01:35:10;;;;;;;11.27;8.80;;;;;;;-3.12;74.71;101407.19;5062794;28;20033;-62
2022/02/28 01:37:35;;;;;;;9.90;7.88;;;;;;;-2.78;73.63;101472.59;5062608;28;20025;-61
2022/02/28 01:40:02;;;;;;;8.93;7.30;;;;;;;-2.81;74.11;101468.25;5062543;28;20067;-61
2022/02/28 01:42:29;;;;;;;10.70;8.10;;;;;;;-2.80;74.40;101453.91;5061311;28;20391;-63
2022/02/28 01:44:54;;;;;;;8.95;6.85;;;;;;;-2.72;74.75;101462.84;5062714;28;20033;-61
2022/02/28 01:47:20;;;;;;;8.55;6.53;;;;;;;-2.78;73.96;101450.69;5062762;28;20055;-60
2022/02/28 01:49:45;;;;;;;9.52;6.60;;;;;;;-2.72;73.72;101452.72;5062769;28;20081;-60
2022/02/28 01:52:11;;;;;;;6.50;5.40;;;;;;;-2.72;73.82;101457.78;5062552;28;20213;-60
2022/02/28 01:54:36;;;;;;;7.72;5.55;;;;;;;-2.70;74.53;101447.72;5062601;28;20321;-61
2022/02/28 01:57:02;;;;;;;11.48;5.65;;;;;;;-2.74;74.13;101455.94;5062638;28;20027;-61
2022/02/28 01:59:29;;;;;;;10.77;6.85;;;;;;;-2.75;74.39;101444.94;5065232;28;20033;-61
2022/02/28 02:01:55;;;;;;;11.63;8.48;;;;;;;-2.70;73.62;101447.72;5058046;28;20060;-61
2022/02/28 02:04:20;;;;;;;11.95;9.40;;;;;;;-2.87;73.82;101450.09;5062044;28;20473;-60
2022/02/28 02:06:48;;;;;;;11.25;8.70;;;;;;;-2.83;73.92;101449.50;5064780;28;20028;-61
2022/02/28 02:09:16;;;;;;;12.45;9.85;;;;;;;-2.96;73.91;101442.81;5059573;28;20051;-62
2022/02/28 02:11:41;;;;;;;11.85;9.02;;;;;;;-2.81;74.60;101455.56;5064904;28;20039;-61
2022/02/28 02:14:08;;;;;;;10.55;9.18;;;;;;;-2.87;73.80;101456.84;5062542;28;20032;-61
2022/02/28 02:16:34;;;;;;;10.85;8.93;;;;;;;-3.12;73.29;101450.25;5062363;28;20024;-61
2022/02/28 02:19:00;;;;;;;11.20;9.20;;;;;;;-2.97;74.87;101461.31;5066519;28;20218;-60
2022/02/28 02:21:26;;;;;;;11.65;8.50;;;;;;;-2.90;74.66;101459.19;5065238;28;20024;-62
2022/02/28 02:23:51;;;;;;;12.57;8.70;;;;;;;-3.01;74.59;101439.09;5097448;28;20061;-62
2022/02/28 02:26:19;;;;;;;9.90;7.78;;;;;;;-2.92;74.17;101448.97;5066122;28;20104;-62
2022/02/28 02:28:45;;;;;;;8.02;6.68;;;;;;;-2.88;74.85;101458.50;5065913;28;20083;-61
2022/02/28 02:31:11;;;;;;;10.98;6.78;;;;;;;-2.87;74.04;101457.69;5066140;28;20256;-61
2022/02/28 02:33:38;;;;;;;7.40;6.03;;;;;;;-2.99;73.98;101447.69;5065895;28;20033;-61
2022/02/28 02:36:07;;;;;;;7.55;5.45;;;;;;;-3.06;74.87;101463.28;5065888;28;20020;-61
2022/02/28 02:38:35;;;;;;;8.68;5.47;;;;;;;-2.97;74.75;101486.66;5065958;28;20221;-62
2022/02/28 02:41:02;;;;;;;8.30;4.95;;;;;;;-3.11;74.79;101449.44;5065509;28;20017;-63
2022/02/28 02:43:28;;;;;;;6.60;4.80;;;;;;;-3.00;74.98;101465.34;5065899;28;20033;-62
2022/02/28 02:45:54;;;;;;;5.75;4.65;;;;;;;-3.00;75.30;101476.34;5064919;28;20256;-61
2022/02/28 02:48:22;;;;;;;8.75;5.30;;;;;;;-3.02;75.06;101457.66;5064754;28;20028;-60
2022/02/28 02:50:48;;;;;;;7.60;5.15;;;;;;;-3.01;74.95;101453.44;5065391;28;20224;-60
2022/02/28 02:53:13;;;;;;;6.07;4.70;;;;;;;-2.99;75.05;101451.91;5064239;28;20316;-61
2022/02/28 02:55:40;;;;;;;9.88;5.35;;;;;;;-3.08;74.51;101452.16;5065385;28;20051;-61
2022/02/28 02:58:06;;;;;;;6.78;4.63;;;;;;;-2.99;75.61;101459.50;5064265;28;20044;-61
2022/02/28 03:00:33;;;;;;;7.00;5.00;;;;;;;-3.48;74.71;101389.78;5065285;28;20028;-61
2022/02/28 03:02:59;;;;;;;11.35;5.22;;;;;;;-3.19;74.93;101465.81;5065241;28;20025;-59
2022/02/28 03:05:25;;;;;;;6.38;4.85;;;;;;;-3.15;75.69;101460.16;5065053;28;20045;-60
2022/02/28 03:07:51;;;;;;;7.60;5.35;;;;;;;-3.21;75.42;101468.25;5064081;28;20041;-60
2022/02/28 03:10:16;;;;;;;9.15;5.30;;;;;;;-3.31;75.30;101471.91;5065287;28;20081;-60
2022/02/28 03:12:42;;;;;;;9.98;4.85;;;;;;;-3.26;75.51;101456.09;5065435;28;20718;-60
2022/02/28 03:15:08;;;;;;;6.90;4.93;;;;;;;-3.20;76.05;101464.97;5064878;28;20025;-60
2022/02/28 03:17:34;;;;;;;7.97;5.25;;;;;;;-3.31;75.24;101459.22;5065037;28;20063;-60
2022/02/28 03:20:00;;;;;;;6.78;5.20;;;;;;;-3.30;75.82;101467.69;5065087;28;20032;-61
2022/02/28 03:22:26;;;;;;;8.10;5.05;;;;;;;-3.25;75.46;101466.34;5063855;28;20021;-61
2022/02/28 03:24:52;;;;;;;8.13;5.13;;;;;;;-3.25;75.50;101466.34;5064933;28;20024;-61
2022/02/28 03:27:17;;;;;;;8.68;5.30;;;;;;;-3.47;75.84;101471.69;5064763;28;20060;-61
2022/02/28 03:29:43;;;;;;;10.15;5.82;;;;;;;-3.31;76.07;101466.81;5064787;28;20029;-61
2022/02/28 03:32:08;;;;;;;8.30;5.55;;;;;;;-3.39;75.50;101474.69;5064865;28;20037;-62
2022/02/28 03:34:34;;;;;;;8.02;5.97;;;;;;;-3.24;76.02;101472.28;5064920;28;20027;-61
2022/02/28 03:37:00;;;;;;;9.27;6.22;;;;;;;-3.28;75.51;101482.97;5063632;28;20373;-61
2022/02/28 03:39:25;;;;;;;8.15;6.60;;;;;;;-3.29;75.73;101482.13;5064389;28;20055;-61
2022/02/28 03:41:53;;;;;;;9.63;5.97;;;;;;;-3.30;75.68;101482.91;5064507;28;20033;-62
2022/02/28 03:44:22;;;;;;;8.40;5.68;;;;;;;-3.36;75.52;101490.09;5064462;28;20052;-61
2022/02/28 03:46:49;;;;;;;7.22;5.65;;;;;;;-3.40;76.01;101472.97;5063270;28;20028;-61
2022/02/28 03:49:17;;;;;;;7.90;5.65;;;;;;;-3.24;76.21;101512.81;5064425;28;20096;-62
2022/02/28 03:51:43;;;;;;;8.80;5.68;;;;;;;-3.26;75.56;101487.38;5064240;28;20305;-62
2022/02/28 03:54:11;;;;;;;7.60;5.60;;;;;;;-3.27;76.12;101497.41;5064455;28;20059;-61
2022/02/28 03:56:41;;;;;;;17.17;8.18;;;;;;;-3.22;75.52;101494.41;5062759;28;20036;-61
2022/02/28 03:59:08;;;;;;;7.72;5.93;;;;;;;-3.27;76.32;101498.28;5064233;28;20083;-61
2022/02/28 04:01:34;;;;;;;8.45;5.57;;;;;;;-3.34;76.28;101494.47;5072535;28;20214;-60
2022/02/28 04:04:01;;;;;;;8.02;5.55;;;;;;;-3.26;76.10;101500.03;5063906;28;20029;-61
2022/02/28 04:06:29;;;;;;;8.45;5.20;;;;;;;-3.28;75.47;101490.59;5063974;28;20025;-61
2022/02/28 04:08:55;;;;;;;8.55;5.57;;;;;;;-3.24;75.75;101502.66;5062868;28;20032;-61
2022/02/28 04:11:21;;;;;;;8.05;5.45;;;;;;;-3.31;75.92;101492.16;5063956;28;20025;-62
2022/02/28 04:13:46;;;;;;;7.63;4.72;;;;;;;-3.28;75.91;101499.06;5063828;28;20036;-63
2022/02/28 04:16:12;;;;;;;11.35;7.80;;;;;;;-3.40;76.09;101472.97;5063812;28;20044;-64
2022/02/28 04:18:37;;;;;;;8.15;5.45;;;;;;;-3.31;75.45;101504.81;5063974;28;20021;-64
2022/02/28 04:21:03;;;;;;;8.98;5.60;;;;;;;-3.32;75.31;101505.59;5063374;28;20074;-65
2022/02/28 04:23:28;;;;;;;8.32;5.78;;;;;;;-3.33;75.46;101497.91;5063761;28;20025;-64
2022/02/28 04:25:54;;;;;;;7.15;5.22;;;;;;;-3.36;75.77;101497.72;5062766;28;20055;-64
2022/02/28 04:28:20;;;;;;;6.75;4.53;;;;;;;-3.20;75.43;101507.16;5062304;28;20025;-64
2022/02/28 04:30:46;;;;;;;8.60;5.38;;;;;;;-3.21;76.25;101505.41;5063869;28;20029;-63
2022/02/28 04:33:11;;;;;;;8.98;5.88;;;;;;;-3.17;74.82;101514.94;5062298;28;20071;-63
2022/02/28 04:35:37;;;;;;;7.85;4.68;;;;;;;-3.25;75.76;101519.53;5063442;28;20029;-64
2022/02/28 04:38:05;;;;;;;6.88;4.40;;;;;;;-3.26;75.49;101511.81;5063363;28;20048;-64
2022/02/28 04:40:32;;;;;;;8.43;5.55;;;;;;;-3.30;75.52;101514.16;5061973;28;20047;-64
2022/02/28 04:42:58;;;;;;;9.40;5.38;;;;;;;-3.39;76.36;101517.75;5063198;28;20037;-64
2022/02/28 04:45:23;;;;;;;6.38;5.03;;;;;;;-3.64;76.15;101504.38;5063034;28;20187;-65
2022/02/28 04:47:49;;;;;;;8.50;5.38;;;;;;;-3.41;76.29;101514.25;5061599;28;20017;-63
2022/02/28 04:50:15;;;;;;;20.80;6.00;;;;;;;-3.32;75.87;101520.78;5063318;28;20337;-64
2022/02/28 04:52:41;;;;;;;10.27;5.50;;;;;;;-3.39;75.82;101520.28;5062777;28;20047;-63
2022/02/28 04:55:07;;;;;;;11.45;5.32;;;;;;;-3.30;76.49;101520.88;5062880;28;20302;-57
2022/02/28 04:57:40;;;;;;;11.77;6.18;;;;;;;-3.68;76.04;101464.47;5068962;28;20271;-58
2022/02/28 05:00:07;;;;;;;7.90;5.35;;;;;;;-3.29;76.19;101520.13;5065628;28;20025;-59
2022/02/28 05:02:32;;;;;;;9.02;5.25;;;;;;;-3.54;75.36;101504.97;5062728;28;20025;-58
2022/02/28 05:04:58;;;;;;;8.68;5.88;;;;;;;-3.36;75.42;101523.91;5061239;28;20056;-58
2022/02/28 05:07:24;;;;;;;6.88;5.00;;;;;;;-3.31;75.83;101499.75;5062416;28;20326;-60
2022/02/28 05:09:49;;;;;;;12.32;5.03;;;;;;;-3.16;74.82;101521.78;5062819;28;20046;-61
2022/02/28 05:12:15;;;;;;;14.10;5.65;;;;;;;-3.07;75.02;101527.41;5062663;28;20179;-61
2022/02/28 05:14:40;;;;;;;8.00;5.35;;;;;;;-3.14;74.91;101517.66;5062777;28;20082;-60
2022/02/28 05:17:06;;;;;;;14.13;5.90;;;;;;;-3.27;74.67;101525.28;5062695;28;20380;-60
2022/02/28 05:19:32;;;;;;;9.20;5.30;;;;;;;-3.21;74.66;101523.13;5061933;28;20376;-61
2022/02/28 05:21:57;;;;;;;8.73;5.60;;;;;;;-3.17;75.37;101525.94;5061377;28;20033;-62
2022/02/28 05:24:23;;;;;;;12.48;6.20;;;;;;;-3.23;74.70;101515.44;5062525;28;20052;-62
2022/02/28 05:26:49;;;;;;;11.05;5.50;;;;;;;-3.08;75.58;101528.19;5062562;28;20048;-62
2022/02/28 05:29:15;;;;;;;12.10;6.28;;;;;;;-3.03;74.47;101521.78;5062530;28;20035;-60
2022/02/28 05:31:41;;;;;;;18.42;6.03;;;;;;;-3.09;74.35;101508.72;5062209;28;20092;-62
2022/02/28 05:34:06;;;;;;;10.35;6.25;;;;;;;-3.12;74.06;101523.72;5062342;28;20029;-61
2022/02/28 05:36:33;;;;;;;12.32;5.90;;;;;;;-3.08;74.39;101540.84;5062560;28;20025;-61
2022/02/28 05:38:58;;;;;;;8.65;5.47;;;;;;;-3.07;74.33;101529.94;5062671;28;20036;-60
2022/02/28 05:41:24;;;;;;;8.60;5.88;;;;;;;-2.89;75.22;101534.41;5061676;28;20036;-60
2022/02/28 05:43:49;;;;;;;8.43;5.15;;;;;;;-2.94;74.12;101541.75;5062410;28;20218;-61
2022/02/28 05:46:15;;;;;;;11.10;5.80;;;;;;;-2.84;74.41;101543.22;5061171;28;20025;-60
2022/02/28 05:48:41;;;;;;;10.18;6.07;;;;;;;-2.85;73.51;101542.34;5062482;28;20039;-60
2022/02/28 05:51:06;;;;;;;16.67;6.00;;;;;;;-2.74;74.22;101534.53;5062430;28;20040;-60
2022/02/28 05:53:32;;;;;;;10.02;5.38;;;;;;;-2.75;74.36;101541.28;5062003;28;20051;-61
2022/02/28 05:55:58;;;;;;;11.93;5.82;;;;;;;-2.65;74.07;101546.13;5061180;28;20028;-61
2022/02/28 05:58:23;;;;;;;10.80;6.07;;;;;;;-2.70;73.81;101537.34;5061620;28;20021;-60
2022/02/28 06:00:49;;;;;;;6.95;5.03;;;;;;;-2.61;73.57;101535.38;5061755;28;20021;-60
2022/02/28 06:03:15;;;;;;;12.57;6.40;;;;;;;-2.58;73.88;101543.97;5060662;28;20045;-61
2022/02/28 06:05:41;;;;;;;9.75;6.03;;;;;;;-2.68;73.88;101538.34;5062275;28;20048;-61
2022/02/28 06:08:06;;;;;;;7.43;5.47;;;;;;;-2.55;72.88;101536.53;5061611;28;20036;-61
2022/02/28 06:10:32;;;;;;;7.70;5.43;;;;;;;-2.39;73.27;101549.38;5062129;28;20035;-60
2022/02/28 06:12:57;;;;;;;9.38;4.85;;;;;;;-2.45;72.46;101549.03;5062091;28;20321;-61
2022/02/28 06:15:23;;;;;;;11.02;5.75;;;;;;;-2.33;73.40;101539.59;5061615;28;20082;-61
2022/02/28 06:17:49;;;;;;;11.18;5.82;;;;;;;-2.31;73.33;101539.69;5061778;28;20082;-61
2022/02/28 06:20:14;;;;;;;9.88;5.47;;;;;;;-2.32;73.21;101518.53;5062174;28;20029;-61
2022/02/28 06:22:40;;;;;;;7.75;5.25;;;;;;;-2.18;72.69;101532.06;5061095;28;20033;-61
2022/02/28 06:25:07;;;;;;;6.72;5.22;;;;;;;-2.08;72.38;101541.13;5061367;28;20344;-61
2022/02/28 06:27:33;;;;;;;9.50;5.43;;;;;;;-2.04;72.29;101535.41;5060647;28;20107;-61
2022/02/28 06:29:58;;;;;;;6.75;5.07;;;;;;;-2.09;72.08;101529.19;5062284;28;20024;-60
2022/02/28 06:32:24;;;;;;;8.95;5.45;;;;;;;-2.20;71.78;101533.63;5062210;28;20021;-60
2022/02/28 06:34:49;;;;;;;8.45;5.50;;;;;;;-1.93;71.80;101547.06;5061877;28;20047;-61
2022/02/28 06:37:15;;;;;;;10.63;7.10;;;;;;;-1.87;72.21;101546.56;5061832;28;20029;-61
2022/02/28 06:39:40;;;;;;;10.93;4.90;;;;;;;-1.83;71.52;101542.56;5061838;28;20024;-62
2022/02/28 06:42:06;;;;;;;7.10;5.65;;;;;;;-1.70;71.43;101542.47;5061972;28;20021;-61
2022/02/28 06:44:31;;;;;;;9.90;5.38;;;;;;;-1.61;70.74;101548.13;5063905;28;20316;-61
2022/02/28 06:46:57;;;;;;;8.32;5.30;;;;;;;-1.51;70.89;101544.44;5061327;28;20326;-60
2022/02/28 06:49:23;;;;;;;12.23;4.68;;;;;;;-1.53;70.73;101550.22;5066071;28;20037;-60
2022/02/28 06:51:49;;;;;;;8.30;5.03;;;;;;;-1.47;70.08;101550.56;5064900;28;20027;-61
2022/02/28 06:54:15;;;;;;;12.73;6.78;;;;;;;-0.93;69.00;101544.28;5065339;28;20021;-61
2022/02/28 06:56:41;;;;;;;9.57;5.40;;;;;;;-0.45;68.52;101538.41;5065249;28;20020;-63
2022/02/28 06:59:07;;;;;;;7.13;5.00;;;;;;;0.75;64.68;101536.84;5065089;28;20020;-60
2022/02/28 07:01:35;;;;;;;8.75;5.50;;;;;;;1.50;61.64;101543.75;5060880;28;20318;-61
2022/02/28 07:04:01;;;;;;;9.95;5.00;;;;;;;2.13;60.00;101531.19;5062135;28;20064;-62
2022/02/28 07:06:28;;;;;;;7.35;4.70;;;;;;;2.85;57.38;101528.22;5060419;28;20076;-62
2022/02/28 07:08:54;;;;;;;6.78;4.78;;;;;;;3.06;56.01;101519.63;5062344;28;20209;-61
2022/02/28 07:11:20;;;;;;;6.40;5.00;;;;;;;2.55;57.45;101532.94;5062169;28;20028;-62
2022/02/28 07:13:47;;;;;;;10.38;5.07;;;;;;;2.42;57.36;101526.44;5062528;28;20058;-62
2022/02/28 07:16:15;;;;;;;6.78;4.93;;;;;;;2.44;57.58;101545.28;5063244;28;20092;-62
2022/02/28 07:18:41;;;;;;;9.45;4.80;;;;;;;3.03;56.93;101507.56;5062051;28;20221;-62
2022/02/28 07:21:06;;;;;;;6.60;4.35;;;;;;;3.27;54.12;101528.13;5061762;28;20029;-61
2022/02/28 07:23:32;;;;;;;8.45;4.50;;;;;;;3.72;53.47;101511.88;5061457;28;20384;-61
2022/02/28 07:25:58;;;;;;;8.48;4.25;;;;;;;4.14;53.25;101518.47;5059435;28;20032;-61
2022/02/28 07:28:23;;;;;;;7.65;4.35;;;;;;;4.28;51.98;101519.81;5060593;28;20269;-61
2022/02/28 07:30:49;;;;;;;5.70;4.15;;;;;;;4.69;51.77;101526.25;5060587;28;20025;-62
2022/02/28 07:33:14;;;;;;;7.07;4.80;;;;;;;4.86;51.28;101525.13;5060285;28;20272;-62
2022/02/28 07:35:40;;;;;;;8.20;4.53;;;;;;;5.20;50.82;101523.59;5061666;28;20021;-62
2022/02/28 07:38:06;;;;;;;7.18;4.72;;;;;;;5.16;50.16;101514.94;5062390;28;20340;-62
2022/02/28 07:40:31;;;;;;;8.65;4.60;;;;;;;5.35;49.79;101525.75;5062314;28;20037;-61
2022/02/28 07:42:57;;;;;;;7.15;4.60;;;;;;;5.48;49.07;101519.28;5063765;28;20081;-62
2022/02/28 07:45:22;;;;;;;9.18;4.63;;;;;;;5.49;48.61;101523.59;5063764;28;20029;-61
2022/02/28 07:47:48;;;;;;;6.97;4.68;;;;;;;5.68;47.86;101520.72;5062645;28;20028;-61
2022/02/28 07:50:14;;;;;;;6.07;4.53;;;;;;;5.92;48.45;101514.53;5062966;28;20094;-62
2022/02/28 07:52:39;;;;;;;5.53;4.10;;;;;;;5.79;47.21;101515.03;5063235;28;20036;-60
2022/02/28 07:55:06;;;;;;;17.75;8.60;;;;;;;6.03;47.68;101518.28;5057246;28;20064;-60
2022/02/28 07:57:32;;;;;;;5.88;4.18;;;;;;;5.64;47.86;101513.78;5062899;28;20025;-61
2022/02/28 07:59:58;;;;;;;5.78;3.85;;;;;;;5.50;47.17;101515.94;5063315;28;20024;-61
2022/02/28 08:02:24;;;;;;;6.38;3.97;;;;;;;4.74;48.34;101529.84;5063625;28;20036;-61
2022/02/28 08:04:50;;;;;;;6.72;3.95;;;;;;;5.46;48.20;101529.53;5063395;28;20036;-61
2022/02/28 08:07:16;;;;;;;5.63;3.88;;;;;;;5.20;47.80;101531.28;5063307;28;20037;-62
2022/02/28 08:09:41;;;;;;;5.63;3.35;;;;;;;4.90;49.56;101531.22;5061510;28;20044;-61
2022/02/28 08:12:07;;;;;;;7.82;4.30;;;;;;;4.24;50.37;101535.91;5060564;28;20021;-62
2022/02/28 08:14:32;;;;;;;11.82;4.13;;;;;;;4.94;50.17;101535.63;5063584;28;20237;-63
2022/02/28 08:16:58;;;;;;;6.10;4.00;;;;;;;5.11;49.15;101531.03;5060477;28;20065;-64
2022/02/28 08:19:24;;;;;;;4.65;3.55;;;;;;;4.80;49.61;101532.63;5061535;28;20088;-62
2022/02/28 08:21:49;;;;;;;5.22;3.33;;;;;;;5.29;48.93;101528.16;5063186;28;20025;-61
2022/02/28 08:24:17;;;;;;;5.97;3.20;;;;;;;5.75;47.88;101524.34;5063441;28;20024;-61
2022/02/28 08:26:44;;;;;;;4.15;3.28;;;;;;;5.40;47.12;101513.03;5063344;28;20527;-63
2022/02/28 08:29:09;;;;;;;4.70;2.83;;;;;;;4.09;50.00;101522.53;5062044;28;20368;-64
2022/02/28 08:31:35;;;;;;;3.50;3.17;;;;;;;5.01;49.51;101524.72;5062234;28;20020;-62
2022/02/28 08:34:00;;;;;;;4.18;3.05;;;;;;;4.74;48.57;101528.16;5061887;28;20218;-62
2022/02/28 08:36:26;;;;;;;4.90;3.30;;;;;;;4.84;49.11;101519.94;5062838;28;20070;-61
2022/02/28 08:38:51;;;;;;;5.38;3.22;;;;;;;4.52;49.18;101518.91;5063115;28;20098;-62
2022/02/28 08:41:17;;;;;;;5.18;3.05;;;;;;;4.67;49.17;101515.94;5062845;28;20020;-61
2022/02/28 08:43:43;;;;;;;10.10;3.42;;;;;;;4.56;51.06;101515.63;5063010;28;20210;-61
2022/02/28 08:46:09;;;;;;;6.50;3.67;;;;;;;5.88;48.74;101499.84;5062900;28;20081;-61
2022/02/28 08:48:36;;;;;;;6.68;3.38;;;;;;;6.40;47.59;101510.69;5063063;28;20278;-61
2022/02/28 08:51:02;;;;;;;4.30;3.47;;;;;;;6.16;45.23;101506.63;5062546;28;20040;-62
2022/02/28 08:53:27;;;;;;;8.68;3.10;;;;;;;5.52;47.06;101519.41;5062586;28;20044;-64
2022/02/28 08:55:53;;;;;;;6.93;3.35;;;;;;;5.65;47.34;101510.34;5062486;28;20021;-62
2022/02/28 08:58:18;;;;;;;6.07;3.38;;;;;;;5.71;46.77;101512.22;5062726;28;20104;-61
2022/02/28 09:00:44;;;;;;;6.82;3.55;;;;;;;6.69;46.07;101507.94;5061056;28;20056;-60
2022/02/28 09:03:09;;;;;;;6.03;3.08;;;;;;;5.35;47.47;101510.34;5062414;28;20202;-61
2022/02/28 09:05:36;;;;;;;8.55;3.25;;;;;;;5.44;47.08;101494.31;5062233;28;20052;-61
2022/02/28 09:08:02;;;;;;;7.38;3.08;;;;;;;6.41;46.24;101496.09;5061137;28;20056;-61
2022/02/28 09:10:28;;;;;;;3.88;2.78;;;;;;;6.88;44.56;101496.38;5062510;28;20381;-61
2022/02/28 09:12:54;;;;;;;6.13;3.70;;;;;;;6.75;45.06;101454.00;5062518;28;20039;-62
2022/02/28 09:15:20;;;;;;;5.72;3.22;;;;;;;6.26;43.55;101502.59;5062509;28;20035;-60
2022/02/28 09:17:45;;;;;;;4.80;3.10;;;;;;;7.43;43.69;101492.44;5062636;28;20233;-61
2022/02/28 09:20:11;;;;;;;4.63;3.35;;;;;;;7.87;42.64;101495.88;5062910;28;20280;-61
2022/02/28 09:22:37;;;;;;;14.52;4.20;;;;;;;8.24;43.11;101497.41;5063230;28;20064;-62
2022/02/28 09:25:04;;;;;;;5.85;3.67;;;;;;;8.11;41.48;101492.88;5061985;28;20060;-61
2022/02/28 09:27:30;;;;;;;5.82;2.88;;;;;;;8.60;41.90;101491.16;5062266;28;20036;-61
2022/02/28 09:29:55;;;;;;;2.45;2.22;;;;;;;8.60;40.86;101491.16;5062577;28;20225;-60
2022/02/28 09:32:21;;;;;;;5.03;2.90;;;;;;;9.09;41.22;101484.97;5062622;28;20216;-62
2022/02/28 09:34:46;;;;;;;7.30;2.70;;;;;;;8.28;41.16;101488.88;5062622;28;20333;-62
2022/02/28 09:37:12;;;;;;;4.80;2.50;;;;;;;7.94;41.09;101484.84;5041125;28;20029;-61
2022/02/28 09:39:38;;;;;;;5.65;2.92;;;;;;;7.90;41.32;101483.03;5047466;28;20053;-61
2022/02/28 09:42:04;;;;;;;4.70;2.83;;;;;;;6.64;42.29;101484.69;5062704;28;20040;-61
2022/02/28 09:44:30;;;;;;;7.47;3.25;;;;;;;6.86;44.64;101485.19;5062587;28;20075;-60
2022/02/28 09:46:56;;;;;;;5.82;3.05;;;;;;;6.25;44.86;101477.69;5061582;28;20032;-61
2022/02/28 09:49:22;;;;;;;7.85;3.53;;;;;;;6.13;44.49;101473.13;5062349;28;20020;-62
2022/02/28 09:51:48;;;;;;;5.57;3.10;;;;;;;5.95;44.38;101476.03;5062269;28;20090;-61
2022/02/28 09:54:13;;;;;;;10.00;3.45;;;;;;;5.83;46.12;101470.59;5062448;28;20017;-60
2022/02/28 09:56:39;;;;;;;7.90;3.05;;;;;;;5.47;46.94;101481.56;5061844;28;20025;-61
2022/02/28 09:59:05;;;;;;;5.60;3.08;;;;;;;5.34;47.57;101476.09;5062119;28;20017;-60
2022/02/28 10:01:31;;;;;;;7.15;3.28;;;;;;;4.63;47.10;101478.19;5061954;28;20067;-61
2022/02/28 10:03:56;;;;;;;5.50;3.05;;;;;;;4.83;48.14;101478.81;5062249;28;20053;-61
2022/02/28 10:06:22;;;;;;;5.13;2.80;;;;;;;4.84;47.62;101472.84;5062073;28;20094;-60
2022/02/28 10:08:51;;;;;;;8.00;3.00;;;;;;;4.89;47.75;101496.97;5060977;28;20280;-61
2022/02/28 10:11:30;;;;;;;4.55;2.55;;;;;;;4.50;46.51;101482.03;5061457;28;20096;-60
2022/02/28 10:13:58;;;;;;;4.65;2.58;;;;;;;4.25;47.61;101408.56;5062146;28;20052;-61
2022/02/28 10:16:38;;;;;;;6.35;2.63;;;;;;;4.36;47.67;101409.78;5060896;28;20029;-60
2022/02/28 10:19:23;;;;;;;9.55;2.90;;;;;;;4.68;48.54;101478.34;5064093;28;20049;-60
2022/02/28 10:21:51;;;;;;;5.75;2.70;;;;;;;4.58;50.13;101461.78;5064808;28;20207;-61
2022/02/28 10:24:25;;;;;;;3.97;2.50;;;;;;;4.52;49.05;101467.59;5066040;28;20135;-59
2022/02/28 10:26:56;;;;;;;2.85;2.20;;;;;;;4.54;48.59;101462.50;5065899;28;20033;-61
2022/02/28 10:29:23;;;;;;;6.37;2.63;;;;;;;4.32;48.09;101465.22;5065958;28;20332;-60
2022/02/28 10:31:49;;;;;;;5.72;2.40;;;;;;;4.18;47.88;101460.47;5065855;28;20458;-60
2022/02/28 10:34:24;;;;;;;4.55;2.55;;;;;;;4.01;49.12;101401.81;5065614;28;20395;-60
2022/02/28 10:36:58;;;;;;;3.05;2.40;;;;;;;4.06;49.06;101466.03;5065752;28;20036;-61
2022/02/28 10:39:25;;;;;;;2.20;2.00;;;;;;;4.08;48.17;101455.03;5065698;28;20025;-59
2022/02/28 10:41:52;;;;;;;2.97;2.15;;;;;;;4.09;49.07;101453.31;5065706;28;20048;-60
2022/02/28 10:44:18;;;;;;;4.50;2.05;;;;;;;4.14;50.23;101455.22;5064856;28;20060;-60
2022/02/28 10:46:46;;;;;;;3.58;2.38;;;;;;;3.79;50.76;101410.44;5065170;28;20025;-60
2022/02/28 10:49:27;;;;;;;4.65;2.20;;;;;;;4.08;50.37;101472.13;5065121;28;20013;-59
2022/02/28 10:52:03;;;;;;;2.80;2.10;;;;;;;3.82;49.80;101395.22;5064915;28;20095;-59
2022/02/28 10:54:44;;;;;;;4.97;2.28;;;;;;;4.06;49.64;101458.34;5063607;28;20288;-60
2022/02/28 10:57:16;;;;;;;2.88;2.20;;;;;;;3.61;49.88;101388.50;5064159;28;20052;-60
2022/02/28 10:59:49;;;;;;;2.65;2.08;;;;;;;4.04;49.30;101442.91;5064274;28;20032;-60
2022/02/28 11:02:27;;;;;;;3.92;2.17;;;;;;;3.75;49.67;101393.25;5063179;28;20147;-60
2022/02/28 11:05:16;;;;;;;4.53;1.83;;;;;;;4.11;49.30;101446.56;5064373;28;20040;-60
2022/02/28 11:07:48;;;;;;;5.63;2.63;;;;;;;4.12;50.02;101435.50;5062923;28;20224;-61
2022/02/28 11:10:15;;;;;;;3.33;1.70;;;;;;;4.05;49.72;101433.56;5064897;28;20039;-60
2022/02/28 11:12:41;;;;;;;3.40;1.88;;;;;;;4.02;50.10;101434.31;5063998;28;20040;-60
2022/02/28 11:15:13;;;;;;;4.82;2.20;;;;;;;3.82;48.64;101428.53;5064796;28;20033;-60
2022/02/28 11:17:39;;;;;;;2.53;1.63;;;;;;;4.05;48.99;101433.56;5064985;28;20036;-60
2022/02/28 11:20:08;;;;;;;5.70;2.42;;;;;;;3.71;49.26;101425.56;5064988;28;20092;-60
2022/02/28 11:22:35;;;;;;;2.03;1.65;;;;;;;3.90;50.23;101429.63;5064805;28;20067;-59